Time;durP1;ratioP1;P1;durP2;ratioP2;P2;SDS_P1;SDS_P2;PMS_P1;PMS_P2;Temp;Humidity;BMP_temperature;BMP_pressure;BME280_temperature;BME280_humidity;BME280_pressure;Samples;Min_cycle;Max_cycle;Signal;HPM_P1;HPM_P2
2023/04/04 00:19:21;;;;;;;7.80;4.10;;;;;;;3.85;52.48;99644.52;221646;193;666677;-77
2023/04/04 00:24:25;;;;;;;10.40;4.80;;;;;;;3.79;52.60;99652.22;223839;183;136373;-75
2023/04/04 00:29:28;;;;;;;8.90;4.30;;;;;;;3.76;52.31;99654.05;223711;183;144581;-76
2023/04/04 00:34:32;;;;;;;11.80;4.80;;;;;;;3.71;52.86;99652.06;223748;183;139328;-79
2023/04/04 00:39:35;;;;;;;8.80;4.60;;;;;;;3.68;53.20;99656.19;219533;183;136167;-78
2023/04/04 00:44:39;;;;;;;8.10;4.20;;;;;;;3.63;53.30;99657.71;223323;183;144089;-77
2023/04/04 00:49:45;;;;;;;7.20;4.00;;;;;;;3.58;53.15;99660.45;223678;184;138461;-76
2023/04/04 00:54:49;;;;;;;7.40;4.00;;;;;;;3.53;53.30;99660.56;223468;183;136809;-78
2023/04/04 00:59:52;;;;;;;6.80;4.20;;;;;;;3.51;53.33;99659.56;223741;183;143752;-77
2023/04/04 01:04:55;;;;;;;8.10;3.90;;;;;;;3.46;53.27;99659.14;223907;183;138263;-77
2023/04/04 01:10:01;;;;;;;9.70;4.10;;;;;;;3.36;53.41;99658.69;221265;184;135881;-77
2023/04/04 01:15:05;;;;;;;7.40;3.80;;;;;;;3.29;53.60;99661.10;223130;184;146012;-79
2023/04/04 01:20:16;;;;;;;7.10;4.10;;;;;;;3.26;53.83;99661.18;223856;183;149844;-76
2023/04/04 01:25:33;;;;;;;8.50;4.20;;;;;;;3.27;53.89;99667.48;222537;184;136970;-76
2023/04/04 01:30:44;;;;;;;8.00;4.40;;;;;;;3.26;53.97;99667.84;223902;183;145671;-76
2023/04/04 01:36:21;;;;;;;8.20;4.30;;;;;;;3.27;53.98;99668.52;223214;184;138455;-76
2023/04/04 01:41:27;;;;;;;7.80;3.80;;;;;;;3.28;53.77;99670.42;223736;184;135778;-77
2023/04/04 01:46:35;;;;;;;9.00;3.90;;;;;;;3.25;53.64;99673.13;223739;184;146400;-77
2023/04/04 01:51:40;;;;;;;6.60;3.70;;;;;;;3.21;53.73;99678.30;221015;184;138481;-77
2023/04/04 01:56:45;;;;;;;8.90;4.20;;;;;;;3.21;53.72;99671.45;223869;184;135641;-78
2023/04/04 02:01:48;;;;;;;8.50;4.60;;;;;;;3.22;53.84;99674.24;221739;183;145407;-75
2023/04/04 02:06:52;;;;;;;7.90;4.00;;;;;;;3.23;54.02;99671.77;223755;184;138359;-75
2023/04/04 02:11:56;;;;;;;8.20;4.50;;;;;;;3.23;53.82;99669.33;220498;184;136310;-74
2023/04/04 02:16:59;;;;;;;8.60;4.00;;;;;;;3.19;53.84;99669.73;222942;183;145240;-78
2023/04/04 02:22:03;;;;;;;9.00;3.90;;;;;;;3.16;53.86;99668.42;223657;183;138363;-77
2023/04/04 02:27:06;;;;;;;6.10;4.10;;;;;;;3.18;54.23;99666.80;223876;184;136755;-77
2023/04/04 02:32:10;;;;;;;11.10;4.40;;;;;;;3.19;54.32;99669.57;223671;184;145994;-77
2023/04/04 02:37:13;;;;;;;10.20;4.60;;;;;;;3.20;54.39;99669.91;223759;184;138340;-77
2023/04/04 02:42:17;;;;;;;7.30;4.30;;;;;;;3.17;54.74;99669.96;223593;184;136822;-76
2023/04/04 02:47:21;;;;;;;6.40;4.00;;;;;;;3.17;54.62;99671.03;219395;184;145841;-77
2023/04/04 02:52:25;;;;;;;8.40;4.00;;;;;;;3.14;54.56;99671.61;222004;184;138516;-78
2023/04/04 02:57:30;;;;;;;10.40;4.20;;;;;;;3.10;54.88;99673.27;222169;184;136631;-79
2023/04/04 03:02:34;;;;;;;11.40;4.70;;;;;;;3.10;54.78;99669.25;223644;183;145693;-76
2023/04/04 03:07:37;;;;;;;7.90;4.30;;;;;;;3.14;55.01;99663.21;223657;184;139109;-77
2023/04/04 03:12:41;;;;;;;33.20;21.90;;;;;;;3.25;55.84;99662.44;223665;184;136567;-77
2023/04/04 03:17:45;;;;;;;80.30;51.20;;;;;;;3.29;55.07;99663.40;223746;184;145329;-77
2023/04/04 03:22:49;;;;;;;11.50;7.00;;;;;;;3.33;55.11;99659.98;223722;184;138399;-74
2023/04/04 03:27:52;;;;;;;11.40;4.90;;;;;;;3.37;55.23;99658.31;223663;184;136908;-75
2023/04/04 03:32:58;;;;;;;8.40;3.90;;;;;;;3.34;54.90;99658.20;223656;183;145459;-75
2023/04/04 03:38:02;;;;;;;7.00;4.20;;;;;;;3.35;54.90;99655.02;223453;183;139490;-77
2023/04/04 03:43:06;;;;;;;7.20;4.20;;;;;;;3.37;54.59;99651.46;218738;183;136187;-79
2023/04/04 03:48:10;;;;;;;6.90;4.10;;;;;;;3.33;54.69;99641.91;221345;183;145468;-76
2023/04/04 03:53:15;;;;;;;7.30;3.80;;;;;;;3.29;54.51;99641.82;221192;180;138337;-76
2023/04/04 03:58:18;;;;;;;8.50;4.10;;;;;;;3.24;54.75;99640.36;223722;184;136098;-78
2023/04/04 04:03:22;;;;;;;64.60;37.90;;;;;;;3.25;55.24;99637.34;223391;184;145205;-77
2023/04/04 04:08:26;;;;;;;14.60;7.40;;;;;;;3.36;55.81;99631.65;222327;184;138701;-77
2023/04/04 04:13:30;;;;;;;10.10;4.50;;;;;;;3.35;55.28;99629.26;223762;184;138644;-76
2023/04/04 04:18:34;;;;;;;7.70;4.30;;;;;;;3.29;55.47;99625.86;223868;183;145600;-73
2023/04/04 04:23:38;;;;;;;8.70;3.80;;;;;;;3.23;55.52;99626.89;223669;184;138200;-74
2023/04/04 04:28:41;;;;;;;9.00;4.20;;;;;;;3.19;55.72;99631.70;223753;183;136253;-75
2023/04/04 04:33:49;;;;;;;6.80;3.90;;;;;;;3.19;55.86;99634.15;219867;182;145570;-73
2023/04/04 04:38:54;;;;;;;8.00;4.30;;;;;;;3.18;55.86;99632.61;223786;184;138106;-73
2023/04/04 04:43:59;;;;;;;;;;;;;;;3.15;55.82;99634.42;223517;183;136320;-76
2023/04/04 04:49:04;;;;;;;8.80;4.10;;;;;;;3.12;56.00;99636.60;223866;183;145339;-73
2023/04/04 04:54:07;;;;;;;7.40;3.80;;;;;;;3.08;55.82;99634.21;223739;184;138983;-74
2023/04/04 04:59:14;;;;;;;8.30;4.10;;;;;;;3.07;56.32;99637.76;223619;183;139483;-74
2023/04/04 05:04:19;;;;;;;9.30;4.20;;;;;;;3.06;56.29;99639.52;223702;183;145133;-74
2023/04/04 05:09:38;;;;;;;7.10;4.20;;;;;;;3.08;56.47;99640.69;223759;183;138468;-74
2023/04/04 05:14:41;;;;;;;9.10;4.30;;;;;;;3.09;56.31;99644.04;222006;183;137007;-75
2023/04/04 05:19:45;;;;;;;9.60;5.10;;;;;;;3.02;56.12;99646.96;223804;184;145494;-76
2023/04/04 05:24:51;;;;;;;8.90;4.40;;;;;;;3.02;56.14;99646.98;223632;183;138491;-74
2023/04/04 05:29:57;;;;;;;9.00;4.60;;;;;;;3.05;56.27;99649.18;223670;183;136734;-74
2023/04/04 05:35:06;;;;;;;7.70;4.60;;;;;;;3.06;56.30;99649.52;223802;184;145503;-73
2023/04/04 05:40:10;;;;;;;7.70;4.60;;;;;;;3.00;56.33;99655.95;223613;184;138947;-75
2023/04/04 05:45:14;;;;;;;7.20;4.20;;;;;;;3.00;56.59;99656.66;223220;183;136255;-76
2023/04/04 05:50:17;;;;;;;9.60;4.80;;;;;;;3.05;56.48;99655.16;223057;183;145582;-76
2023/04/04 05:55:24;;;;;;;9.10;4.90;;;;;;;3.07;56.68;99658.96;222343;184;138388;-76
2023/04/04 06:00:29;;;;;;;11.80;4.70;;;;;;;3.11;56.69;99659.07;223821;183;135943;-74
2023/04/04 06:05:38;;;;;;;9.00;4.60;;;;;;;3.15;56.56;99670.89;223579;183;145474;-76
2023/04/04 06:10:41;;;;;;;12.10;4.80;;;;;;;3.21;56.71;99671.12;219745;183;138965;-75
2023/04/04 06:15:45;;;;;;;8.10;4.80;;;;;;;3.30;56.53;99667.23;220636;184;137199;-74
2023/04/04 06:20:48;;;;;;;8.50;4.80;;;;;;;3.39;56.00;99675.62;223671;184;145647;-75
2023/04/04 06:25:53;;;;;;;9.30;4.70;;;;;;;3.40;55.46;99674.73;223706;183;138366;-74
2023/04/04 06:30:57;;;;;;;10.20;4.60;;;;;;;3.44;55.80;99676.58;223227;183;136151;-74
2023/04/04 06:36:09;;;;;;;8.40;4.50;;;;;;;3.45;55.88;99672.50;223809;184;146100;-73
2023/04/04 06:41:13;;;;;;;9.50;4.50;;;;;;;3.50;55.71;99671.17;223761;184;138621;-74
2023/04/04 06:46:17;;;;;;;7.30;4.80;;;;;;;3.58;55.50;99670.98;223684;184;136121;-73
2023/04/04 06:51:20;;;;;;;8.40;4.30;;;;;;;3.70;55.53;99667.52;223709;183;145572;-74
2023/04/04 06:56:25;;;;;;;8.40;5.00;;;;;;;3.78;55.21;99664.34;223439;183;139011;-74
2023/04/04 07:01:33;;;;;;;11.20;5.00;;;;;;;3.87;55.00;99658.67;223720;183;136115;-74
2023/04/04 07:06:36;;;;;;;8.00;4.80;;;;;;;3.90;54.75;99653.52;223713;183;145264;-74
2023/04/04 07:11:40;;;;;;;8.60;4.80;;;;;;;3.93;54.49;99663.29;223789;183;258256;-74
2023/04/04 07:16:44;;;;;;;7.80;4.60;;;;;;;3.97;54.46;99666.16;223898;183;136451;-75
2023/04/04 07:21:47;;;;;;;8.40;4.60;;;;;;;3.99;54.43;99660.67;223780;183;145428;-76
2023/04/04 07:26:50;;;;;;;7.80;4.80;;;;;;;4.03;54.41;99663.91;223686;183;138795;-75
2023/04/04 07:31:54;;;;;;;8.00;4.70;;;;;;;4.10;54.30;99660.57;221647;184;136373;-74
2023/04/04 07:36:57;;;;;;;9.70;5.00;;;;;;;4.19;54.07;99658.75;220888;183;145401;-74
2023/04/04 07:42:00;;;;;;;8.50;4.70;;;;;;;4.26;54.18;99657.00;223766;183;139885;-75
2023/04/04 07:47:04;;;;;;;7.10;4.50;;;;;;;4.31;53.92;99658.26;223733;183;136191;-74
2023/04/04 07:58:01;;;;;;;8.00;4.90;;;;;;;4.48;53.81;99652.54;222414;184;139228;-76
2023/04/04 08:03:05;;;;;;;8.60;4.80;;;;;;;4.58;53.66;99650.15;219631;184;136252;-75
2023/04/04 08:08:26;;;;;;;10.00;5.10;;;;;;;4.71;53.51;99652.42;221345;184;146026;-76
2023/04/04 08:13:30;;;;;;;9.20;4.50;;;;;;;4.79;52.54;99648.52;220373;183;139767;-76
2023/04/04 08:18:33;;;;;;;7.00;4.60;;;;;;;4.86;51.93;99645.66;222969;184;136693;-76
2023/04/04 08:23:40;;;;;;;6.90;4.10;;;;;;;4.95;51.85;99642.03;223859;184;146752;-74
2023/04/04 08:28:44;;;;;;;6.70;4.10;;;;;;;5.01;51.72;99642.58;222199;184;138936;-73
2023/04/04 08:33:47;;;;;;;8.50;4.50;;;;;;;5.10;51.44;99633.53;223737;183;136353;-73
2023/04/04 08:38:50;;;;;;;8.20;4.50;;;;;;;5.15;51.89;99632.30;223316;184;146547;-76
2023/04/04 08:43:56;;;;;;;303.40;192.60;;;;;;;5.25;51.96;99632.02;220574;183;138729;-75
2023/04/04 08:49:03;;;;;;;11.60;7.20;;;;;;;5.46;51.84;99629.60;222154;184;139335;-74
2023/04/04 08:54:08;;;;;;;5.90;4.10;;;;;;;5.55;50.73;99623.67;223759;183;147717;-75
2023/04/04 08:59:14;;;;;;;6.80;4.00;;;;;;;5.64;49.86;99621.63;223818;183;139259;-75
2023/04/04 09:04:20;;;;;;;9.40;4.20;;;;;;;5.66;48.99;99613.30;223575;184;136641;-76
2023/04/04 09:09:24;;;;;;;;;;;;;;;5.64;49.14;99613.34;223700;184;148572;-76
2023/04/04 09:14:29;;;;;;;8.50;3.80;;;;;;;5.68;48.57;99611.09;223606;184;138594;-76
2023/04/04 09:19:32;;;;;;;7.10;3.50;;;;;;;5.84;48.27;99604.40;223719;183;136602;-75
2023/04/04 09:24:41;;;;;;;4.80;3.20;;;;;;;6.00;47.22;99605.85;219113;183;147066;-76
2023/04/04 09:36:01;;;;;;;4.90;3.00;;;;;;;6.10;45.97;99615.52;219166;183;138172;-75
2023/04/04 09:41:10;;;;;;;5.40;3.30;;;;;;;6.24;45.18;99614.18;223635;184;146834;-76
2023/04/04 09:46:18;;;;;;;5.20;3.00;;;;;;;6.28;44.53;99609.27;223625;183;138433;-74
2023/04/04 09:51:21;;;;;;;5.40;2.90;;;;;;;6.21;43.11;99603.73;223599;184;136126;-76
2023/04/04 09:56:26;;;;;;;15.20;8.80;;;;;;;6.37;44.45;99600.50;219802;184;148166;-76
2023/04/04 10:01:32;;;;;;;4.60;2.40;;;;;;;6.53;42.03;99597.44;223047;183;138720;-74
2023/04/04 10:06:36;;;;;;;;;;;;;;;6.55;42.25;99594.56;223630;183;136595;-75
2023/04/04 10:11:40;;;;;;;5.40;2.90;;;;;;;6.52;41.57;99596.96;223835;183;147045;-76
2023/04/04 10:16:44;;;;;;;8.40;3.00;;;;;;;6.40;41.28;99593.15;223714;183;138730;-74
2023/04/04 10:21:48;;;;;;;4.20;2.80;;;;;;;6.40;41.42;99591.58;223771;183;136879;-73
2023/04/04 10:26:53;;;;;;;6.90;2.70;;;;;;;6.65;41.19;99583.26;223677;184;147480;-73
2023/04/04 10:32:04;;;;;;;4.40;2.30;;;;;;;6.74;40.54;99586.08;223766;184;138431;-73
2023/04/04 10:37:15;;;;;;;5.10;2.40;;;;;;;6.79;39.55;99585.37;223662;183;136470;-73
2023/04/04 10:42:18;;;;;;;4.20;2.50;;;;;;;6.77;38.95;99580.66;223715;183;147751;-74
2023/04/04 10:47:24;;;;;;;4.40;2.40;;;;;;;6.75;39.71;99580.94;223736;183;138496;-76
2023/04/04 10:52:30;;;;;;;4.30;2.60;;;;;;;6.92;39.78;99575.69;223751;183;138450;-73
2023/04/04 10:57:41;;;;;;;3.00;2.10;;;;;;;7.25;40.01;99573.00;223607;184;148368;-73
2023/04/04 11:02:59;;;;;;;3.60;2.30;;;;;;;7.41;38.79;99573.80;223655;184;138317;-74
2023/04/04 11:08:05;;;;;;;5.70;2.30;;;;;;;7.30;38.35;99574.56;223478;182;136375;-74
2023/04/04 11:13:28;;;;;;;4.10;2.50;;;;;;;7.21;38.83;99575.45;223832;182;147698;-74
2023/04/04 11:18:31;;;;;;;35.10;27.90;;;;;;;7.17;38.98;99575.27;223854;182;138845;-74
2023/04/04 11:23:48;;;;;;;10.20;6.10;;;;;;;7.18;39.86;99576.10;223903;182;137333;-74
2023/04/04 11:28:55;;;;;;;5.70;2.70;;;;;;;7.11;39.38;99574.98;223831;182;147465;-74
2023/04/04 11:34:06;;;;;;;4.00;2.20;;;;;;;7.04;39.69;99573.13;223837;182;139405;-75
2023/04/04 11:39:25;;;;;;;8.60;2.50;;;;;;;7.02;39.80;99572.48;223872;183;136728;-75
2023/04/04 11:44:31;;;;;;;4.30;2.50;;;;;;;7.05;40.36;99571.50;223865;182;147558;-75
2023/04/04 11:49:35;;;;;;;;;;;;;;;7.09;40.37;99570.62;223875;182;138541;-75
2023/04/04 11:54:42;;;;;;;331.40;185.40;;;;;;;7.11;40.14;99570.91;223882;182;130958;-76
2023/04/04 11:59:48;;;;;;;7.60;3.90;;;;;;;7.22;39.64;99566.22;223889;182;147386;-76
2023/04/04 12:04:52;;;;;;;5.40;2.90;;;;;;;7.41;39.14;99561.05;222701;182;276532;-78
2023/04/04 12:09:56;;;;;;;5.00;2.60;;;;;;;7.72;38.56;99561.02;222331;182;139122;-77
2023/04/04 12:15:00;;;;;;;4.10;2.40;;;;;;;7.89;38.31;99551.30;221820;182;146942;-76
2023/04/04 12:20:22;;;;;;;4.20;2.50;;;;;;;8.04;37.99;99547.83;223756;182;138301;-76
2023/04/04 12:25:27;;;;;;;4.90;2.50;;;;;;;8.02;37.62;99549.83;222851;182;136190;-77
2023/04/04 12:30:32;;;;;;;5.70;2.30;;;;;;;7.94;38.08;99546.33;223723;183;146854;-77
2023/04/04 12:35:36;;;;;;;6.90;2.90;;;;;;;7.93;38.11;99542.63;223720;183;138080;-76
2023/04/04 12:40:40;;;;;;;399.60;260.60;;;;;;;7.98;38.86;99536.39;223716;182;136584;-76
2023/04/04 12:45:44;;;;;;;9.80;5.70;;;;;;;8.08;38.69;99527.48;223867;183;146931;-76
2023/04/04 12:50:50;;;;;;;6.10;2.90;;;;;;;8.04;37.70;99524.84;223793;183;139939;-75
2023/04/04 12:55:58;;;;;;;7.40;2.80;;;;;;;7.97;37.69;99523.71;223863;182;136873;-76
2023/04/04 13:01:02;;;;;;;4.00;2.60;;;;;;;8.00;38.62;99522.19;220853;182;147693;-74
2023/04/04 13:06:15;;;;;;;5.00;2.60;;;;;;;8.09;38.55;99521.59;223833;183;139220;-75
2023/04/04 13:11:19;;;;;;;5.50;2.40;;;;;;;8.04;38.19;99523.41;223880;182;137095;-75
2023/04/04 13:16:36;;;;;;;4.60;2.20;;;;;;;8.10;37.91;99513.99;223817;182;148580;-75
2023/04/04 13:21:39;;;;;;;6.00;2.90;;;;;;;7.89;38.40;99507.65;223735;182;139125;-72
2023/04/04 13:26:43;;;;;;;192.90;121.60;;;;;;;7.95;39.59;99504.56;223752;182;136527;-75
2023/04/04 13:31:46;;;;;;;9.10;4.40;;;;;;;7.97;39.63;99511.89;223768;182;147017;-74
2023/04/04 13:36:50;;;;;;;5.80;3.00;;;;;;;7.78;38.80;99509.34;223821;182;138551;-76
2023/04/04 13:41:53;;;;;;;5.80;2.70;;;;;;;7.52;38.91;99511.70;223835;182;137941;-75
2023/04/04 13:46:57;;;;;;;6.20;2.90;;;;;;;7.39;40.00;99517.70;223860;183;146964;-74
2023/04/04 13:52:00;;;;;;;9.00;3.30;;;;;;;7.26;39.74;99521.43;223835;183;138291;-75
2023/04/04 13:57:03;;;;;;;5.30;2.80;;;;;;;7.19;40.14;99521.02;221485;182;136204;-75
2023/04/04 14:02:08;;;;;;;141.80;96.60;;;;;;;7.12;40.86;99518.13;223671;183;146958;-74
2023/04/04 14:07:11;;;;;;;8.20;4.30;;;;;;;7.19;40.74;99519.23;223465;182;139059;-74
2023/04/04 14:12:24;;;;;;;8.60;2.80;;;;;;;7.11;39.80;99521.15;220813;182;137126;-85
2023/04/04 14:17:56;;;;;;;5.50;2.90;;;;;;;7.05;39.59;99516.80;223358;183;148009;-63
2023/04/04 14:23:00;;;;;;;6.30;3.20;;;;;;;6.99;40.38;99522.87;223627;183;139078;-63
2023/04/04 14:28:07;;;;;;;9.10;3.30;;;;;;;6.87;40.69;99526.35;223533;183;136186;-63
2023/04/04 14:33:12;;;;;;;6.30;3.20;;;;;;;6.79;41.18;99533.88;223477;183;149726;-62
2023/04/04 14:42:50;;;;;;;5.80;3.60;;;;;;;6.68;41.40;99535.38;219832;193;666080;-64
2023/04/04 14:47:55;;;;;;;10.40;3.30;;;;;;;6.56;41.95;99535.83;221158;183;136213;-64
2023/04/04 14:52:59;;;;;;;11.70;3.10;;;;;;;6.43;42.09;99538.41;222938;183;143826;-64
2023/04/04 14:58:03;;;;;;;7.20;3.20;;;;;;;6.27;41.80;99543.41;223921;182;142934;-64
2023/04/04 15:03:07;;;;;;;6.70;3.20;;;;;;;6.16;41.87;99543.63;223899;181;136032;-64
2023/04/04 15:08:11;;;;;;;7.50;2.90;;;;;;;6.03;41.48;99537.23;223866;181;144206;-64
2023/04/04 15:13:15;;;;;;;19.00;11.10;;;;;;;5.96;42.94;99543.47;223895;180;139278;-63
2023/04/04 15:18:19;;;;;;;8.60;3.40;;;;;;;6.05;42.32;99542.27;224063;181;136294;-64
2023/04/04 15:23:23;;;;;;;5.40;2.80;;;;;;;5.93;41.96;99541.60;223999;181;143804;-64
2023/04/04 15:28:27;;;;;;;7.70;3.50;;;;;;;5.83;41.74;99544.23;223893;181;139115;-63
2023/04/04 15:33:31;;;;;;;7.70;3.40;;;;;;;5.81;41.42;99544.85;223799;182;136166;-64
2023/04/04 15:42:59;;;;;;;7.20;3.10;;;;;;;5.76;41.48;99551.88;219840;192;666579;-67
2023/04/04 15:48:10;;;;;;;12.90;6.30;;;;;;;5.79;44.63;99557.20;220795;186;136413;-65
2023/04/04 15:53:23;;;;;;;5.10;3.10;;;;;;;5.83;41.54;99560.24;220943;186;143388;-64
2023/04/04 15:58:40;;;;;;;362.40;225.10;;;;;;;5.71;41.74;99566.12;222129;186;139111;-66
2023/04/04 16:03:47;;;;;;;;;;;;;;;5.65;42.72;99570.36;223584;184;136935;-63
2023/04/04 16:09:14;;;;;;;6.90;4.30;;;;;;;5.47;41.19;99570.42;223767;183;144105;-65
2023/04/04 16:14:20;;;;;;;8.00;3.30;;;;;;;5.39;41.65;99576.14;223706;184;138271;-64
2023/04/04 16:19:31;;;;;;;4.80;2.80;;;;;;;5.34;41.72;99579.84;223778;183;136934;-63
2023/04/04 16:24:44;;;;;;;5.90;3.00;;;;;;;5.30;41.40;99579.95;223755;183;143359;-63
2023/04/04 17:45:31;;;;;;;5.60;3.00;;;;;;;4.55;40.84;99641.10;219977;193;665828;-66
2023/04/04 17:50:42;;;;;;;5.40;2.70;;;;;;;4.46;40.62;99646.61;220852;187;136142;-65
2023/04/04 17:55:46;;;;;;;8.80;3.80;;;;;;;4.44;41.46;99655.10;221372;186;144344;-65
2023/04/04 18:00:51;;;;;;;7.40;3.50;;;;;;;4.41;41.49;99661.31;223798;182;138707;-65
2023/04/04 18:05:55;;;;;;;8.50;3.60;;;;;;;4.40;41.79;99658.19;223798;182;136005;-64
2023/04/04 18:10:59;;;;;;;11.70;3.90;;;;;;;4.40;41.61;99657.66;223924;182;143340;-65
2023/04/04 18:16:04;;;;;;;5.40;3.50;;;;;;;4.40;41.69;99659.77;223786;182;140158;-66
2023/04/04 18:21:08;;;;;;;18.90;12.20;;;;;;;4.45;42.30;99653.48;223811;182;137718;-64
2023/04/04 18:26:11;;;;;;;7.10;3.60;;;;;;;4.49;41.77;99652.66;223829;182;143718;-63
2023/04/04 18:31:15;;;;;;;7.70;4.00;;;;;;;4.45;41.60;99656.30;223803;182;138403;-64
2023/04/04 18:36:18;;;;;;;358.90;218.70;;;;;;;4.43;41.89;99653.74;223789;182;135838;-64
2023/04/04 18:41:22;;;;;;;27.30;15.00;;;;;;;4.57;43.21;99651.77;223789;183;145869;-63
2023/04/04 19:46:08;;;;;;;6.40;3.50;;;;;;;4.34;39.87;99650.64;221535;193;665965;-67
2023/04/04 19:51:14;;;;;;;195.60;122.40;;;;;;;4.29;40.53;99654.63;223430;184;136672;-66
2023/04/04 19:56:22;;;;;;;13.00;7.50;;;;;;;4.49;41.30;99652.16;223816;182;143594;-67
2023/04/04 20:01:28;;;;;;;6.90;4.00;;;;;;;4.47;40.46;99655.89;223858;182;139595;-64
2023/04/04 20:06:31;;;;;;;;;;;;;;;4.40;40.27;99653.10;223763;182;137145;-65
2023/04/04 20:11:35;;;;;;;8.40;3.60;;;;;;;4.34;40.40;99656.77;223935;183;144332;-65
2023/04/04 20:16:38;;;;;;;8.20;4.20;;;;;;;4.27;40.91;99653.64;223875;182;140120;-65
2023/04/04 20:21:42;;;;;;;5.80;4.20;;;;;;;4.24;41.13;99657.56;223845;183;135865;-64
2023/04/04 20:26:56;;;;;;;6.90;4.10;;;;;;;4.22;41.92;99657.45;223870;182;143307;-66
2023/04/04 20:32:03;;;;;;;8.60;4.80;;;;;;;4.20;41.92;99653.45;223778;182;138541;-65
2023/04/04 20:37:10;;;;;;;8.20;5.00;;;;;;;4.20;42.02;99651.54;223742;182;137091;-66
2023/04/04 20:42:18;;;;;;;9.10;5.00;;;;;;;4.18;42.23;99647.19;223682;182;145209;-64
2023/04/04 20:47:36;;;;;;;10.10;4.40;;;;;;;4.18;42.18;99647.00;223774;182;139499;-67
2023/04/04 20:52:40;;;;;;;11.00;4.60;;;;;;;4.19;42.03;99643.65;223941;182;136946;-65
2023/04/04 20:57:46;;;;;;;9.90;4.40;;;;;;;4.17;41.50;99642.83;223782;183;145229;-65
2023/04/04 21:02:49;;;;;;;9.10;4.70;;;;;;;4.13;41.65;99641.50;223825;182;138259;-65
2023/04/04 21:07:53;;;;;;;11.30;4.80;;;;;;;4.13;41.96;99640.84;223799;182;136365;-66
2023/04/04 21:12:59;;;;;;;8.70;4.20;;;;;;;4.11;42.07;99635.61;223862;181;145825;-66
2023/04/04 21:18:07;;;;;;;8.90;5.30;;;;;;;4.08;42.02;99636.04;223836;182;138572;-65
2023/04/04 21:23:26;;;;;;;10.30;5.80;;;;;;;4.08;42.44;99629.55;223840;183;137732;-65
2023/04/04 21:28:32;;;;;;;13.20;5.30;;;;;;;3.88;42.46;99626.72;223821;182;145084;-65
2023/04/04 21:33:36;;;;;;;15.00;5.90;;;;;;;3.83;43.02;99622.65;223886;182;138682;-64
2023/04/04 21:38:40;;;;;;;11.90;5.60;;;;;;;3.79;43.63;99621.52;223922;183;136381;-65
2023/04/04 21:49:49;;;;;;;10.20;5.40;;;;;;;3.59;43.97;99618.85;223860;181;138150;-64
2023/04/04 21:54:52;;;;;;;11.90;5.40;;;;;;;3.46;44.01;99617.75;223897;182;137347;-65
2023/04/04 21:59:56;;;;;;;13.00;7.10;;;;;;;3.28;44.27;99612.38;223890;182;145368;-65
2023/04/04 22:05:14;;;;;;;10.20;5.20;;;;;;;3.17;44.84;99613.54;223819;182;139013;-66
2023/04/04 22:10:53;;;;;;;10.30;4.90;;;;;;;3.04;45.05;99610.83;223926;182;136899;-64
2023/04/04 22:16:18;;;;;;;9.50;4.80;;;;;;;2.94;45.39;99611.40;223770;184;145318;-65
2023/04/04 23:25:57;;;;;;;;;;;;;;;;;;;;;
2023/04/04 23:32:16;;;;;;;;;;;;;;;;;;;;;
2023/04/04 23:37:55;;;;;;;;;;;;;;;;;;;;;
2023/04/04 23:43:09;;;;;;;14.40;7.40;;;;;;;2.44;47.19;99581.10;223463;186;139407;-64
2023/04/04 23:48:51;;;;;;;15.40;7.20;;;;;;;2.35;47.08;99584.44;223519;188;135507;-65
2023/04/04 23:53:59;;;;;;;13.50;6.50;;;;;;;2.34;46.99;99580.59;223466;185;144404;-66
